Time;durP1;ratioP1;P1;durP2;ratioP2;P2;SDS_P1;SDS_P2;PMS_P1;PMS_P2;Temp;Humidity;BMP_temperature;BMP_pressure;BME280_temperature;BME280_humidity;BME280_pressure;Samples;Min_cycle;Max_cycle;Signal;HPM_P1;HPM_P2
2022/10/09 00:01:04;;;;;;;11.35;2.00;;;9.70;99.90;;;;;;5115888;27;20051;-81
2022/10/09 00:03:30;;;;;;;9.93;2.63;;;9.80;99.90;;;;;;5103094;27;20127;-81
2022/10/09 00:05:58;;;;;;;6.00;2.05;;;9.70;99.90;;;;;;5122505;27;20665;-81
2022/10/09 00:08:24;;;;;;;6.32;1.88;;;9.70;99.90;;;;;;5121716;27;20061;-81
2022/10/09 00:10:50;;;;;;;10.07;2.90;;;9.70;99.90;;;;;;5108059;27;20039;-81
2022/10/09 00:13:16;;;;;;;11.32;2.42;;;9.60;99.90;;;;;;5105584;27;20159;-81
2022/10/09 00:15:43;;;;;;;8.15;2.28;;;9.60;99.90;;;;;;5140431;27;20473;-81
2022/10/09 00:18:11;;;;;;;8.07;2.17;;;9.60;99.90;;;;;;5119056;27;20169;-81
2022/10/09 00:20:42;;;;;;;6.65;1.98;;;9.60;99.90;;;;;;5128732;27;20074;-81
2022/10/09 00:23:09;;;;;;;9.48;1.85;;;9.60;99.90;;;;;;5136726;27;20035;-81
2022/10/09 00:25:48;;;;;;;6.47;2.10;;;10.00;99.90;;;;;;5103968;27;20087;-81
2022/10/09 00:28:14;;;;;;;7.22;1.80;;;9.70;99.90;;;;;;5123843;27;20046;-81
2022/10/09 00:30:39;;;;;;;12.10;2.30;;;10.80;99.90;;;;;;5119463;27;20043;-81
2022/10/09 00:33:05;;;;;;;7.13;2.00;;;9.60;99.90;;;;;;5150319;27;20034;-81
2022/10/09 00:35:31;;;;;;;6.60;1.92;;;9.60;99.90;;;;;;5130404;27;20039;-82
2022/10/09 00:37:56;;;;;;;7.70;2.22;;;11.40;99.90;;;;;;5138572;27;20047;-81
2022/10/09 00:40:26;;;;;;;6.05;1.60;;;9.60;99.90;;;;;;5140828;27;20034;-81
2022/10/09 00:42:56;;;;;;;7.53;1.95;;;9.60;99.90;;;;;;5148500;27;20125;-80
2022/10/09 00:45:21;;;;;;;8.80;1.80;;;10.50;99.90;;;;;;5102432;27;20049;-82
2022/10/09 00:47:51;;;;;;;7.90;1.55;;;9.50;99.90;;;;;;5121015;27;20039;-82
2022/10/09 00:50:26;;;;;;;8.55;2.15;;;11.20;99.90;;;;;;5141626;27;20035;-81
2022/10/09 00:52:58;;;;;;;6.63;1.70;;;9.40;99.90;;;;;;5140588;27;20046;-82
2022/10/09 00:55:24;;;;;;;10.60;1.73;;;9.30;99.90;;;;;;5127654;27;20043;-81
2022/10/09 00:57:56;;;;;;;8.80;1.95;;;9.30;99.90;;;;;;5121706;27;20046;-81
2022/10/09 01:00:25;;;;;;;;;;;9.30;99.90;;;;;;5106362;27;20431;-81
2022/10/09 01:02:52;;;;;;;9.48;2.47;;;9.20;99.90;;;;;;5108304;27;19963;-81
2022/10/09 01:05:18;;;;;;;7.95;2.10;;;9.20;99.90;;;;;;5103105;27;20654;-81
2022/10/09 01:08:11;;;;;;;5.30;1.75;;;9.30;99.90;;;;;;5128972;27;20669;-81
2022/10/09 01:10:54;;;;;;;9.43;1.75;;;9.30;99.90;;;;;;5118586;27;20085;-80
2022/10/09 01:13:41;;;;;;;7.93;1.52;;;9.20;99.90;;;;;;5123473;27;20543;-81
2022/10/09 01:16:20;;;;;;;8.57;1.98;;;9.20;99.90;;;;;;5127496;27;20057;-82
2022/10/09 01:18:52;;;;;;;5.78;1.33;;;9.20;99.90;;;;;;5118304;27;20095;-82
2022/10/09 01:21:41;;;;;;;11.40;1.70;;;9.20;99.90;;;;;;5145949;27;20490;-81
2022/10/09 01:24:29;;;;;;;8.95;1.27;;;9.20;99.90;;;;;;5123821;27;20035;-82
2022/10/09 01:27:18;;;;;;;7.60;2.08;;;9.20;99.90;;;;;;5125590;27;20522;-81
2022/10/09 01:29:49;;;;;;;3.30;1.58;;;9.70;99.90;;;;;;5101059;27;20084;-81
2022/10/09 01:32:20;;;;;;;6.97;1.48;;;9.20;99.90;;;;;;5115508;27;20039;-80
2022/10/09 01:34:48;;;;;;;6.30;1.23;;;9.20;99.90;;;;;;5125050;27;20413;-81
2022/10/09 01:37:15;;;;;;;10.77;1.83;;;9.50;99.90;;;;;;5123998;27;20045;-81
2022/10/09 01:39:43;;;;;;;5.68;2.10;;;9.10;99.90;;;;;;5119874;27;20051;-81
2022/10/09 01:42:11;;;;;;;6.28;1.80;;;9.10;99.90;;;;;;5124341;27;20070;-81
2022/10/09 01:44:37;;;;;;;5.85;1.88;;;9.00;99.90;;;;;;5119366;27;20055;-82
2022/10/09 01:47:04;;;;;;;5.82;1.40;;;10.40;99.90;;;;;;5118468;27;20039;-81
2022/10/09 01:49:36;;;;;;;6.55;1.75;;;9.10;99.90;;;;;;5091229;27;20101;-82
2022/10/09 01:52:22;;;;;;;7.80;1.80;;;9.00;99.90;;;;;;5120751;27;20036;-82
2022/10/09 01:55:26;;;;;;;6.75;2.03;;;9.00;99.90;;;;;;5122146;27;20058;-82
2022/10/09 01:57:55;;;;;;;5.63;2.30;;;9.00;99.90;;;;;;5114687;27;20081;-82
2022/10/09 02:00:21;;;;;;;5.00;1.10;;;10.50;99.90;;;;;;5120529;27;20047;-81
2022/10/09 02:02:48;;;;;;;12.95;1.88;;;9.00;99.90;;;;;;5110336;27;20044;-81
2022/10/09 02:05:23;;;;;;;4.63;1.23;;;9.00;99.90;;;;;;5116777;27;20043;-81
2022/10/09 02:07:49;;;;;;;7.03;1.33;;;10.20;99.90;;;;;;5122816;27;20397;-81
2022/10/09 02:10:17;;;;;;;3.40;1.35;;;8.90;99.90;;;;;;5116061;27;20040;-81
2022/10/09 02:12:48;;;;;;;5.80;2.10;;;9.30;99.90;;;;;;5101340;28;20092;-81
2022/10/09 02:15:15;;;;;;;6.18;1.92;;;10.20;99.90;;;;;;5116010;28;20035;-82
2022/10/09 02:17:45;;;;;;;7.35;1.58;;;8.90;99.90;;;;;;5116361;28;20047;-81
2022/10/09 02:20:23;;;;;;;6.53;1.50;;;8.80;99.90;;;;;;5118938;27;20035;-81
2022/10/09 02:22:54;;;;;;;7.68;1.48;;;8.90;99.90;;;;;;5125671;28;20054;-81
2022/10/09 02:25:23;;;;;;;3.88;1.67;;;10.40;99.90;;;;;;5104654;28;20407;-81
2022/10/09 02:27:49;;;;;;;4.15;1.05;;;8.80;99.90;;;;;;5124480;28;20070;-81
2022/10/09 02:30:16;;;;;;;7.18;1.50;;;8.80;99.90;;;;;;5125147;28;20031;-81
2022/10/09 02:32:42;;;;;;;5.22;1.67;;;8.70;99.90;;;;;;5118152;28;20474;-81
2022/10/09 02:35:08;;;;;;;5.53;1.60;;;8.90;99.90;;;;;;5115827;28;20046;-82
2022/10/09 02:37:33;;;;;;;4.25;1.50;;;8.80;99.90;;;;;;5122180;27;20047;-82
2022/10/09 02:39:59;;;;;;;8.45;1.80;;;8.70;99.90;;;;;;5097343;28;20035;-82
2022/10/09 02:42:24;;;;;;;3.35;1.63;;;8.70;99.90;;;;;;5126353;28;20031;-82
2022/10/09 02:44:51;;;;;;;5.55;1.98;;;8.70;99.90;;;;;;5098455;28;20047;-82
2022/10/09 02:47:17;;;;;;;6.50;1.92;;;8.60;99.90;;;;;;5127432;28;20047;-80
2022/10/09 02:49:42;;;;;;;5.63;1.63;;;8.60;99.90;;;;;;5097949;28;20047;-81
2022/10/09 02:52:08;;;;;;;5.13;2.00;;;8.60;99.90;;;;;;5126962;28;20047;-81
2022/10/09 02:54:34;;;;;;;4.63;1.88;;;8.50;99.90;;;;;;5121808;27;20036;-80
2022/10/09 02:56:59;;;;;;;4.95;1.73;;;8.50;99.90;;;;;;5116727;28;20100;-80
2022/10/09 02:59:25;;;;;;;2.70;1.40;;;8.50;99.90;;;;;;5120628;28;20115;-81
2022/10/09 03:01:51;;;;;;;4.72;1.77;;;8.50;99.90;;;;;;5116529;28;20449;-81
2022/10/09 03:04:16;;;;;;;3.55;2.05;;;8.50;99.90;;;;;;5114941;27;20047;-81
2022/10/09 03:06:42;;;;;;;4.22;2.05;;;8.40;99.90;;;;;;5116149;27;20079;-81
2022/10/09 03:09:07;;;;;;;4.60;1.40;;;8.40;99.90;;;;;;5116213;27;20155;-81
2022/10/09 03:11:33;;;;;;;3.17;1.90;;;8.40;99.90;;;;;;5109707;27;20043;-81
2022/10/09 03:13:58;;;;;;;4.63;1.70;;;7.30;99.90;;;;;;5117002;27;20074;-81
2022/10/09 03:16:25;;;;;;;4.10;2.15;;;8.40;99.90;;;;;;5124867;27;20036;-81
2022/10/09 03:18:52;;;;;;;5.70;1.65;;;8.40;99.90;;;;;;5120627;27;20039;-81
2022/10/09 03:21:24;;;;;;;4.97;2.03;;;8.40;99.90;;;;;;5121750;27;20043;-81
2022/10/09 03:23:50;;;;;;;4.25;1.80;;;8.80;99.90;;;;;;5094438;28;20039;-81
2022/10/09 03:26:18;;;;;;;4.22;1.67;;;8.30;99.90;;;;;;5094186;27;20048;-80
2022/10/09 03:28:47;;;;;;;10.00;2.05;;;8.40;99.90;;;;;;5117280;27;20058;-81
2022/10/09 03:31:14;;;;;;;10.68;2.13;;;9.70;99.90;;;;;;5119061;27;20555;-81
2022/10/09 03:33:39;;;;;;;4.43;2.17;;;8.30;99.90;;;;;;5122398;27;20047;-81
2022/10/09 03:36:06;;;;;;;6.63;2.58;;;8.30;99.90;;;;;;5119302;27;20039;-81
2022/10/09 03:38:35;;;;;;;6.30;2.08;;;8.30;99.90;;;;;;5118663;27;20453;-81
2022/10/09 03:41:02;;;;;;;6.40;2.00;;;8.30;99.90;;;;;;5124656;27;20055;-80
2022/10/09 03:43:27;;;;;;;4.43;2.30;;;8.30;99.90;;;;;;5119147;27;20050;-81
2022/10/09 03:45:53;;;;;;;9.90;2.63;;;8.20;99.90;;;;;;5126981;27;20112;-81
2022/10/09 03:48:19;;;;;;;8.63;2.67;;;8.10;99.90;;;;;;5118760;27;20040;-80
2022/10/09 03:50:45;;;;;;;10.77;2.33;;;8.20;99.90;;;;;;5101028;27;20047;-81
2022/10/09 03:53:12;;;;;;;5.03;2.20;;;8.10;99.90;;;;;;5116683;27;20031;-80
2022/10/09 03:55:38;;;;;;;7.07;2.50;;;8.10;99.90;;;;;;5117528;27;20532;-81
2022/10/09 03:58:04;;;;;;;4.95;2.53;;;8.10;99.90;;;;;;5114934;27;20039;-80
2022/10/09 04:00:31;;;;;;;4.40;2.75;;;9.70;99.90;;;;;;5115207;27;20108;-80
2022/10/09 04:02:56;;;;;;;5.50;2.22;;;8.60;99.90;;;;;;5125453;27;20043;-81
2022/10/09 04:05:22;;;;;;;6.85;3.08;;;8.10;99.90;;;;;;5120641;27;20049;-80
2022/10/09 04:07:48;;;;;;;8.85;2.53;;;8.10;99.90;;;;;;5127167;27;20050;-80
2022/10/09 04:10:14;;;;;;;6.40;3.17;;;8.10;99.90;;;;;;5124532;27;20444;-80
2022/10/09 04:12:39;;;;;;;5.38;3.00;;;8.10;99.90;;;;;;5127240;27;20470;-81
2022/10/09 04:15:05;;;;;;;8.32;2.83;;;8.10;99.90;;;;;;5127979;27;20126;-80
2022/10/09 04:17:31;;;;;;;10.02;3.65;;;8.10;99.90;;;;;;5122566;27;20051;-80
2022/10/09 04:19:57;;;;;;;6.22;2.92;;;9.10;99.90;;;;;;5124401;27;20394;-81
2022/10/09 04:22:22;;;;;;;3.53;2.58;;;8.10;99.90;;;;;;5086379;28;20531;-81
2022/10/09 04:24:48;;;;;;;9.77;3.75;;;8.10;99.90;;;;;;5124244;27;20036;-80
2022/10/09 04:27:14;;;;;;;4.65;2.92;;;9.50;99.90;;;;;;5141334;27;20053;-81
2022/10/09 04:29:39;;;;;;;6.32;2.75;;;8.10;99.90;;;;;;5120056;27;20538;-81
2022/10/09 04:32:05;;;;;;;6.07;3.55;;;8.10;99.90;;;;;;5143087;27;20122;-81
2022/10/09 04:34:33;;;;;;;7.32;3.33;;;8.10;99.90;;;;;;5124659;27;20139;-82
2022/10/09 04:36:59;;;;;;;7.90;2.90;;;8.20;99.90;;;;;;5121554;27;20043;-80
2022/10/09 04:39:24;;;;;;;7.78;3.42;;;8.80;99.90;;;;;;5123988;27;20042;-82
2022/10/09 04:41:50;;;;;;;11.68;4.57;;;8.00;99.90;;;;;;5147803;27;20053;-81
2022/10/09 04:44:16;;;;;;;3.20;2.78;;;8.00;99.90;;;;;;5139327;27;20145;-81
2022/10/09 04:46:41;;;;;;;4.93;3.00;;;9.20;99.90;;;;;;5138117;27;20100;-81
2022/10/09 04:49:13;;;;;;;8.07;3.60;;;8.10;99.90;;;;;;5136730;27;20043;-81
2022/10/09 04:51:39;;;;;;;4.53;3.17;;;8.10;99.90;;;;;;5098076;27;20043;-81
2022/10/09 04:54:05;;;;;;;6.03;2.72;;;8.00;99.90;;;;;;5141307;27;20042;-81
2022/10/09 04:56:31;;;;;;;6.88;3.05;;;7.90;99.90;;;;;;5126112;27;20478;-81
2022/10/09 04:58:57;;;;;;;8.43;3.20;;;8.00;99.90;;;;;;5121379;27;20676;-81
2022/10/09 05:01:25;;;;;;;7.93;3.20;;;9.00;99.90;;;;;;5124767;27;20039;-81
2022/10/09 05:03:52;;;;;;;7.32;2.70;;;9.00;99.90;;;;;;5137724;27;20720;-81
2022/10/09 05:06:19;;;;;;;7.95;3.67;;;8.00;99.90;;;;;;5126200;27;20529;-81
2022/10/09 05:08:45;;;;;;;6.80;3.72;;;7.90;99.90;;;;;;5126861;27;20050;-81
2022/10/09 05:11:13;;;;;;;7.88;2.90;;;8.00;99.90;;;;;;5124778;27;20110;-81
2022/10/09 05:13:41;;;;;;;5.80;3.28;;;8.00;99.90;;;;;;5149040;27;20046;-82
2022/10/09 05:16:10;;;;;;;4.55;3.03;;;7.90;99.90;;;;;;5119621;27;20447;-81
2022/10/09 05:18:41;;;;;;;9.10;3.55;;;7.90;99.90;;;;;;5120956;27;20441;-81
2022/10/09 05:21:06;;;;;;;3.78;3.38;;;7.90;99.90;;;;;;5104909;27;20129;-81
2022/10/09 05:23:32;;;;;;;6.00;3.40;;;7.90;99.90;;;;;;5125551;27;20472;-81
2022/10/09 05:26:04;;;;;;;7.18;3.03;;;7.80;99.90;;;;;;5115405;27;20047;-81
2022/10/09 05:28:29;;;;;;;5.50;2.70;;;7.80;99.90;;;;;;5143720;27;20058;-82
2022/10/09 05:30:55;;;;;;;7.38;3.63;;;7.80;99.90;;;;;;5112286;27;20508;-81
2022/10/09 05:33:21;;;;;;;9.60;3.67;;;7.60;99.90;;;;;;5139105;27;20038;-79
2022/10/09 05:35:55;;;;;;;6.25;3.60;;;7.80;99.90;;;;;;4434776;27;10000720;-80
2022/10/09 05:38:22;;;;;;;6.95;3.92;;;7.80;99.90;;;;;;5115722;27;20058;-81
2022/10/09 05:40:51;;;;;;;6.80;4.70;;;7.80;99.90;;;;;;5144333;27;20498;-82
2022/10/09 05:43:18;;;;;;;9.32;4.45;;;7.80;99.90;;;;;;5119968;27;20043;-82
2022/10/09 05:45:43;;;;;;;7.63;3.47;;;7.80;99.90;;;;;;5121551;27;20607;-83
2022/10/09 05:48:09;;;;;;;6.38;3.65;;;7.80;99.90;;;;;;5138827;27;20142;-80
2022/10/09 05:50:34;;;;;;;6.45;4.35;;;7.80;99.90;;;;;;5126907;27;20092;-82
2022/10/09 05:53:01;;;;;;;6.93;3.72;;;7.60;99.90;;;;;;5139845;27;20505;-81
2022/10/09 05:55:27;;;;;;;6.25;3.65;;;7.70;99.90;;;;;;5131799;27;20038;-81
2022/10/09 05:57:55;;;;;;;5.82;3.55;;;7.80;99.90;;;;;;5124181;27;20560;-81
2022/10/09 06:00:21;;;;;;;10.32;3.67;;;8.10;99.90;;;;;;5116687;27;20039;-82
2022/10/09 06:02:46;;;;;;;6.10;3.88;;;7.70;99.90;;;;;;5097784;27;20213;-82
2022/10/09 06:05:12;;;;;;;6.35;3.78;;;9.20;99.90;;;;;;5122691;27;20042;-81
2022/10/09 06:07:40;;;;;;;7.85;3.83;;;7.70;99.90;;;;;;5121628;27;20607;-82
2022/10/09 06:10:06;;;;;;;10.77;3.78;;;7.70;99.90;;;;;;5124994;27;20092;-81
2022/10/09 06:12:32;;;;;;;5.65;3.40;;;7.60;99.90;;;;;;5120517;27;20073;-81
2022/10/09 06:14:58;;;;;;;6.95;3.40;;;9.30;99.90;;;;;;5120079;27;20467;-81
2022/10/09 06:17:23;;;;;;;5.30;3.80;;;8.30;99.90;;;;;;5121165;27;20071;-82
2022/10/09 06:19:49;;;;;;;6.25;3.63;;;9.60;99.90;;;;;;5120468;27;20030;-81
2022/10/09 06:22:15;;;;;;;7.60;3.70;;;7.50;99.90;;;;;;5122333;27;20035;-81
2022/10/09 06:24:40;;;;;;;5.25;3.58;;;8.80;99.90;;;;;;5139172;27;20038;-89
2022/10/09 06:27:27;;;;;;;8.40;3.97;;;7.50;99.90;;;;;;5137322;27;20035;-87
2022/10/09 06:29:54;;;;;;;7.28;3.92;;;8.30;99.90;;;;;;5128859;27;20058;-82
2022/10/09 06:32:20;;;;;;;4.85;3.78;;;7.60;99.90;;;;;;5103487;27;20171;-86
2022/10/09 06:34:45;;;;;;;6.78;3.83;;;7.50;99.90;;;;;;5139874;27;20509;-86
2022/10/09 06:37:11;;;;;;;6.50;4.00;;;8.90;99.90;;;;;;5140630;27;20035;-85
2022/10/09 06:39:37;;;;;;;5.50;3.58;;;7.50;99.90;;;;;;5122021;27;20534;-83
2022/10/09 06:42:03;;;;;;;7.10;4.13;;;8.50;99.90;;;;;;5124820;27;20066;-85
2022/10/09 06:44:28;;;;;;;4.70;3.92;;;7.50;99.90;;;;;;5142593;27;20037;-85
2022/10/09 06:46:56;;;;;;;6.75;3.60;;;7.60;99.90;;;;;;5144331;27;20035;-85
2022/10/09 06:49:22;;;;;;;5.70;3.85;;;7.60;99.90;;;;;;5150241;27;20039;-85
2022/10/09 06:51:48;;;;;;;5.43;3.90;;;7.60;99.90;;;;;;5129503;27;20088;-84
2022/10/09 06:54:16;;;;;;;8.32;4.28;;;7.60;99.90;;;;;;5131757;27;20043;-86
2022/10/09 06:56:47;;;;;;;8.82;3.90;;;;;;;;;;5105097;27;20414;-84
2022/10/09 06:59:13;;;;;;;6.68;3.72;;;7.60;99.90;;;;;;5123677;27;20073;-81
2022/10/09 07:01:42;;;;;;;8.30;4.00;;;7.40;99.90;;;;;;5123762;27;20490;-83
2022/10/09 07:04:13;;;;;;;8.93;4.07;;;7.60;99.90;;;;;;5128981;27;20473;-85
2022/10/09 07:06:41;;;;;;;7.50;3.55;;;7.60;99.90;;;;;;5139512;27;20043;-82
2022/10/09 07:09:12;;;;;;;9.43;4.57;;;7.70;99.90;;;;;;5142452;27;20111;-85
2022/10/09 07:11:41;;;;;;;7.15;4.38;;;7.70;99.90;;;;;;5120235;27;20034;-84
2022/10/09 07:14:08;;;;;;;11.10;4.65;;;7.60;99.90;;;;;;5140425;27;20068;-83
2022/10/09 07:16:36;;;;;;;9.65;5.65;;;7.70;99.90;;;;;;5108359;27;20050;-84
2022/10/09 07:19:06;;;;;;;12.13;7.47;;;9.10;99.90;;;;;;5124070;27;20118;-83
2022/10/09 07:21:34;;;;;;;9.43;7.10;;;7.70;99.90;;;;;;5123882;27;20419;-84
2022/10/09 07:24:00;;;;;;;14.98;8.90;;;7.80;99.90;;;;;;5101078;27;20047;-85
2022/10/09 07:26:28;;;;;;;18.30;10.45;;;7.80;99.90;;;;;;5123887;27;20139;-86
2022/10/09 07:28:53;;;;;;;17.05;10.52;;;7.80;99.90;;;;;;5148102;27;20074;-84
2022/10/09 07:31:19;;;;;;;14.48;10.35;;;7.90;99.90;;;;;;5149286;27;20073;-81
2022/10/09 07:33:49;;;;;;;15.02;10.30;;;7.90;99.90;;;;;;5152779;27;20454;-86
2022/10/09 07:36:18;;;;;;;17.05;10.52;;;8.00;99.90;;;;;;5150204;27;20042;-84
2022/10/09 07:38:49;;;;;;;12.82;9.40;;;7.40;99.90;;;;;;5126129;27;20103;-81
2022/10/09 07:41:14;;;;;;;13.55;9.25;;;8.00;99.90;;;;;;4768025;27;10000186;-82
2022/10/09 07:43:41;;;;;;;12.50;9.15;;;8.00;99.90;;;;;;5137043;27;20035;-81
2022/10/09 07:46:10;;;;;;;13.88;8.48;;;8.80;99.90;;;;;;5119544;27;20042;-82
2022/10/09 07:48:37;;;;;;;18.35;10.25;;;8.20;99.90;;;;;;5113764;27;20045;-82
2022/10/09 07:51:16;;;;;;;12.80;9.50;;;8.20;99.90;;;;;;5120558;27;20847;-82
2022/10/09 07:53:42;;;;;;;15.35;8.27;;;8.20;99.90;;;;;;5129000;27;20106;-81
2022/10/09 07:56:23;;;;;;;13.50;7.80;;;8.30;99.90;;;;;;5123963;27;20035;-82
2022/10/09 07:58:53;;;;;;;12.20;8.10;;;8.40;99.90;;;;;;5105032;27;20046;-84
2022/10/09 08:01:20;;;;;;;13.55;8.45;;;8.40;99.90;;;;;;5127602;27;20069;-80
2022/10/09 08:03:47;;;;;;;9.10;7.25;;;8.50;99.90;;;;;;5120734;27;20035;-81
2022/10/09 08:06:12;;;;;;;10.85;6.38;;;8.50;99.90;;;;;;5125576;27;20130;-80
2022/10/09 08:08:38;;;;;;;10.93;6.45;;;8.60;99.90;;;;;;5122986;27;20589;-81
2022/10/09 08:11:12;;;;;;;14.52;6.82;;;8.60;99.90;;;;;;5150727;27;20043;-82
2022/10/09 08:13:39;;;;;;;10.68;5.93;;;8.80;99.90;;;;;;5150918;27;20081;-81
2022/10/09 08:16:06;;;;;;;9.60;5.63;;;8.80;99.90;;;;;;5147095;27;20091;-82
2022/10/09 08:18:31;;;;;;;12.50;5.60;;;8.90;99.90;;;;;;5090307;27;20047;-81
2022/10/09 08:21:00;;;;;;;13.20;6.28;;;9.70;99.90;;;;;;5142946;27;20053;-82
2022/10/09 08:23:26;;;;;;;10.00;4.95;;;9.10;99.90;;;;;;5122178;27;20035;-81
2022/10/09 08:25:52;;;;;;;10.18;5.03;;;10.20;99.90;;;;;;5132971;27;20202;-82
2022/10/09 08:28:18;;;;;;;13.32;5.30;;;9.20;99.90;;;;;;5128735;27;20514;-82
2022/10/09 08:30:44;;;;;;;6.43;4.80;;;9.30;99.90;;;;;;5124723;27;20035;-81
2022/10/09 08:33:09;;;;;;;13.25;4.40;;;9.30;99.90;;;;;;5145075;27;20043;-82
2022/10/09 08:35:35;;;;;;;7.05;4.15;;;10.40;99.90;;;;;;5105674;27;20038;-82
2022/10/09 08:38:01;;;;;;;9.85;4.47;;;9.40;99.90;;;;;;5107509;27;20060;-82
2022/10/09 08:40:50;;;;;;;10.45;4.47;;;9.50;99.90;;;;;;5106272;27;20070;-82
2022/10/09 08:43:23;;;;;;;10.25;4.13;;;11.30;99.90;;;;;;5151563;27;20078;-83
2022/10/09 08:45:49;;;;;;;10.27;3.90;;;9.70;99.90;;;;;;5146081;27;20110;-83
2022/10/09 08:48:21;;;;;;;8.70;3.30;;;11.20;99.90;;;;;;5150746;27;20081;-83
2022/10/09 08:50:49;;;;;;;10.25;4.80;;;9.90;99.90;;;;;;5119916;27;20026;-82
2022/10/09 08:53:38;;;;;;;9.60;3.97;;;11.50;99.90;;;;;;5150479;27;20049;-82
2022/10/09 08:56:07;;;;;;;11.90;3.83;;;10.00;99.90;;;;;;5139087;27;20039;-82
2022/10/09 08:58:38;;;;;;;11.38;3.38;;;11.40;99.90;;;;;;5127218;27;20140;-82
2022/10/09 09:01:43;;;;;;;8.43;3.53;;;11.50;99.90;;;;;;5079760;27;20043;-83
2022/10/09 09:04:30;;;;;;;11.07;4.47;;;10.30;99.90;;;;;;5117449;27;20035;-82
2022/10/09 09:06:56;;;;;;;12.27;3.42;;;10.40;99.90;;;;;;5141054;27;20526;-82
2022/10/09 09:09:42;;;;;;;8.90;2.90;;;10.50;99.90;;;;;;5123690;27;20114;-82
2022/10/09 09:12:18;;;;;;;9.40;2.80;;;10.60;99.90;;;;;;5121073;27;20459;-83
2022/10/09 09:15:04;;;;;;;8.70;3.20;;;10.60;99.90;;;;;;5128956;27;20149;-82
2022/10/09 09:17:59;;;;;;;10.82;3.50;;;10.70;99.90;;;;;;5103689;27;20039;-82
2022/10/09 09:20:51;;;;;;;9.90;3.05;;;10.80;99.90;;;;;;5127042;27;20065;-82
2022/10/09 09:23:19;;;;;;;11.82;3.45;;;10.80;99.90;;;;;;5102678;27;20461;-83
2022/10/09 09:25:46;;;;;;;11.00;3.00;;;10.90;99.90;;;;;;5099234;27;20096;-83
2022/10/09 09:28:32;;;;;;;8.65;2.55;;;11.00;99.90;;;;;;5117218;27;20039;-83
2022/10/09 09:31:18;;;;;;;8.98;2.40;;;11.10;99.90;;;;;;5123479;27;20133;-83
2022/10/09 09:34:08;;;;;;;9.77;3.08;;;11.20;99.90;;;;;;5122322;27;20501;-82
2022/10/09 09:36:41;;;;;;;11.35;2.38;;;11.90;99.90;;;;;;5122412;27;20047;-83
2022/10/09 09:39:10;;;;;;;7.97;2.13;;;12.40;99.90;;;;;;5116604;27;20046;-82
2022/10/09 09:41:36;;;;;;;10.70;2.47;;;11.90;99.90;;;;;;5120933;27;20049;-82
2022/10/09 09:44:02;;;;;;;6.90;1.60;;;12.00;99.90;;;;;;5120818;27;20039;-82
2022/10/09 09:46:31;;;;;;;7.75;1.92;;;13.10;99.90;;;;;;5096032;27;20270;-81
2022/10/09 09:48:56;;;;;;;22.75;2.85;;;11.80;99.90;;;;;;5137467;27;20486;-82
2022/10/09 09:51:30;;;;;;;6.55;1.20;;;11.80;99.90;;;;;;5102062;27;20031;-85
2022/10/09 09:54:20;;;;;;;11.40;2.00;;;12.80;99.90;;;;;;4407184;27;10000829;-86
2022/10/09 09:56:47;;;;;;;5.30;1.33;;;11.90;99.90;;;;;;5140174;27;20525;-85
2022/10/09 09:59:34;;;;;;;9.48;2.30;;;12.20;99.90;;;;;;5092687;27;20039;-81
2022/10/09 10:02:13;;;;;;;8.10;1.63;;;12.10;99.90;;;;;;5114533;27;20553;-81
2022/10/09 10:04:47;;;;;;;7.28;1.20;;;12.20;99.90;;;;;;5139286;27;20506;-81
2022/10/09 10:07:13;;;;;;;8.00;1.60;;;13.90;99.90;;;;;;5139784;27;20138;-76
2022/10/09 10:09:39;;;;;;;8.88;1.50;;;12.40;99.90;;;;;;5121921;27;20125;-85
2022/10/09 10:12:05;;;;;;;7.38;1.42;;;13.30;99.90;;;;;;5119308;27;20045;-87
2022/10/09 10:14:33;;;;;;;10.65;1.58;;;12.50;99.90;;;;;;5118120;27;20131;-86
2022/10/09 10:17:00;;;;;;;3.17;0.90;;;12.60;99.90;;;;;;5120914;27;20115;-87
2022/10/09 10:19:28;;;;;;;5.80;1.50;;;13.60;99.90;;;;;;5098534;27;20039;-83
2022/10/09 10:22:02;;;;;;;9.77;1.30;;;12.70;99.90;;;;;;5112765;27;20050;-79
2022/10/09 10:24:32;;;;;;;8.57;1.38;;;12.70;99.90;;;;;;5141931;27;20043;-80
2022/10/09 10:27:08;;;;;;;8.18;1.65;;;12.80;99.90;;;;;;5132858;27;20101;-80
2022/10/09 10:29:41;;;;;;;6.55;1.48;;;12.80;99.90;;;;;;5122594;27;20745;-80
2022/10/09 10:32:41;;;;;;;11.63;2.28;;;12.90;99.90;;;;;;5119357;27;20023;-87
2022/10/09 10:35:13;;;;;;;6.10;1.40;;;13.00;99.90;;;;;;5097443;27;20039;-87
2022/10/09 10:37:45;;;;;;;9.65;1.70;;;13.10;99.90;;;;;;5139470;27;20505;-88
2022/10/09 10:40:16;;;;;;;4.35;1.38;;;14.50;99.90;;;;;;5136118;27;20043;-86
2022/10/09 10:43:13;;;;;;;9.43;1.35;;;13.20;99.90;;;;;;5122203;27;20122;-86
2022/10/09 10:45:54;;;;;;;7.30;1.35;;;13.20;99.90;;;;;;5114426;27;20102;-84
2022/10/09 10:48:41;;;;;;;6.32;0.88;;;13.20;99.90;;;;;;5095328;27;20047;-83
2022/10/09 10:51:12;;;;;;;7.13;1.50;;;13.30;99.90;;;;;;5106736;27;20047;-85
2022/10/09 10:53:47;;;;;;;6.75;1.20;;;13.40;99.90;;;;;;5103041;28;20070;-83
2022/10/09 10:56:34;;;;;;;7.20;0.98;;;13.40;99.90;;;;;;5099715;27;20054;-91
2022/10/09 10:59:22;;;;;;;7.95;1.13;;;13.40;99.90;;;;;;5108603;28;20031;-85
2022/10/09 11:02:27;;;;;;;5.57;0.90;;;14.70;99.90;;;;;;5117891;27;20039;-90
2022/10/09 11:05:17;;;;;;;6.10;1.07;;;13.60;99.90;;;;;;5115805;27;20058;-81
2022/10/09 11:07:51;;;;;;;11.02;0.98;;;13.70;99.90;;;;;;5114072;27;20070;-80
2022/10/09 11:10:33;;;;;;;2.67;0.43;;;13.80;99.90;;;;;;5113943;27;20085;-80
2022/10/09 11:13:15;;;;;;;8.05;1.50;;;14.00;99.90;;;;;;5116238;27;20047;-80
2022/10/09 11:15:40;;;;;;;9.10;3.10;;;14.00;99.90;;;;;;5137154;27;20121;-81
2022/10/09 11:18:28;;;;;;;7.13;0.80;;;14.50;99.90;;;;;;5115187;27;20130;-82
2022/10/09 11:21:04;;;;;;;7.05;0.98;;;14.30;99.90;;;;;;5118819;27;20138;-82
2022/10/09 11:23:53;;;;;;;5.30;0.68;;;14.50;99.90;;;;;;5139371;27;20043;-77
2022/10/09 11:26:45;;;;;;;9.20;1.40;;;14.40;99.90;;;;;;5104328;27;20497;-77
2022/10/09 11:29:17;;;;;;;6.18;1.00;;;14.40;99.90;;;;;;5145209;27;20055;-81
2022/10/09 11:32:00;;;;;;;8.48;0.90;;;14.50;99.90;;;;;;5103704;27;20722;-77
2022/10/09 11:34:31;;;;;;;6.80;1.20;;;14.60;99.90;;;;;;5139241;27;20101;-76
2022/10/09 11:36:59;;;;;;;8.25;1.23;;;14.60;99.90;;;;;;5110056;27;20054;-78
2022/10/09 11:39:27;;;;;;;7.18;1.08;;;14.70;99.90;;;;;;5118885;27;20035;-77
2022/10/09 11:41:53;;;;;;;9.68;1.02;;;14.70;99.90;;;;;;5103949;27;21056;-76
2022/10/09 11:44:42;;;;;;;4.53;1.08;;;14.80;99.90;;;;;;5121880;27;20039;-76
2022/10/09 11:47:25;;;;;;;4.95;1.33;;;14.90;99.90;;;;;;5107589;27;20066;-75
2022/10/09 11:50:22;;;;;;;6.20;1.55;;;15.00;99.90;;;;;;5142027;27;20046;-76
2022/10/09 11:52:56;;;;;;;5.40;1.77;;;15.20;99.90;;;;;;5144870;27;20043;-78
2022/10/09 11:55:26;;;;;;;7.53;1.10;;;15.20;99.90;;;;;;5141582;27;20046;-74
2022/10/09 11:57:51;;;;;;;6.07;1.10;;;15.20;99.90;;;;;;5148766;27;20042;-75
2022/10/09 12:00:29;;;;;;;4.93;1.08;;;15.90;99.90;;;;;;5124706;27;20038;-75
2022/10/09 12:02:58;;;;;;;7.25;1.23;;;15.40;99.90;;;;;;5102424;27;20156;-76
2022/10/09 12:05:43;;;;;;;3.65;0.82;;;15.50;99.90;;;;;;5121886;27;20160;-85
2022/10/09 12:08:23;;;;;;;5.43;1.20;;;15.50;99.90;;;;;;5127150;27;20041;-80
2022/10/09 12:11:16;;;;;;;6.78;1.20;;;15.60;99.90;;;;;;5099503;27;20376;-81
2022/10/09 12:13:49;;;;;;;8.45;1.15;;;15.70;99.90;;;;;;5118334;27;20041;-81
2022/10/09 12:16:35;;;;;;;6.07;1.30;;;15.90;99.90;;;;;;5119026;27;20035;-80
2022/10/09 12:19:34;;;;;;;5.45;1.27;;;15.90;99.90;;;;;;5139968;27;20345;-80
2022/10/09 12:22:12;;;;;;;5.40;1.05;;;16.00;99.90;;;;;;5113449;27;20050;-80
2022/10/09 12:24:44;;;;;;;4.22;1.45;;;16.10;99.90;;;;;;5122675;27;20034;-80
2022/10/09 12:27:26;;;;;;;4.00;1.00;;;17.40;99.90;;;;;;5113988;27;20047;-80
2022/10/09 12:30:11;;;;;;;7.75;1.65;;;16.20;99.90;;;;;;5139085;27;20556;-81
2022/10/09 12:32:48;;;;;;;9.23;1.67;;;17.40;99.90;;;;;;5138623;27;20057;-81
2022/10/09 12:35:27;;;;;;;5.10;1.00;;;16.20;99.90;;;;;;5134360;27;20082;-80
2022/10/09 12:37:53;;;;;;;8.65;2.20;;;16.20;99.90;;;;;;5134523;27;20494;-80
2022/10/09 12:40:32;;;;;;;4.45;1.23;;;16.20;99.90;;;;;;5138861;27;20031;-80
2022/10/09 12:43:05;;;;;;;7.72;3.25;;;16.30;99.90;;;;;;5099393;27;20050;-80
2022/10/09 12:45:31;;;;;;;4.00;1.92;;;16.30;99.90;;;;;;5139535;27;20027;-79
2022/10/09 12:48:06;;;;;;;6.50;2.47;;;16.40;99.90;;;;;;5119652;27;20201;-78
2022/10/09 12:50:34;;;;;;;6.50;1.70;;;16.50;99.90;;;;;;5118761;27;20118;-77
2022/10/09 12:53:13;;;;;;;8.95;1.75;;;16.50;99.90;;;;;;5103979;27;20051;-79
2022/10/09 12:55:45;;;;;;;4.43;1.42;;;16.80;99.90;;;;;;5123259;27;20125;-81
2022/10/09 12:58:32;;;;;;;8.70;2.20;;;16.60;99.90;;;;;;5144678;27;20059;-78
2022/10/09 13:01:16;;;;;;;5.18;1.40;;;16.60;99.90;;;;;;5125259;27;20050;-78
2022/10/09 13:03:50;;;;;;;;;;;16.60;99.90;;;;;;5143439;27;20079;-79
2022/10/09 13:06:18;;;;;;;9.10;1.80;;;16.70;99.90;;;;;;5121309;27;19964;-79
2022/10/09 13:08:50;;;;;;;5.18;1.83;;;16.70;99.90;;;;;;5145291;27;20130;-79
2022/10/09 13:11:39;;;;;;;8.77;2.00;;;16.70;99.90;;;;;;5116934;27;20110;-81
2022/10/09 13:14:20;;;;;;;7.35;1.90;;;16.60;99.90;;;;;;5119750;27;20122;-79